createdAt,value
2022-12-09T00:02:25.766Z,22.95
2022-12-09T00:04:53.199Z,22.20
2022-12-09T00:07:20.229Z,22.92
2022-12-09T00:09:47.450Z,21.70
2022-12-09T00:12:14.663Z,22.92
2022-12-09T00:14:41.909Z,23.40
2022-12-09T00:17:08.872Z,23.80
2022-12-09T00:19:35.880Z,23.92
2022-12-09T00:22:03.167Z,22.38
2022-12-09T00:24:30.219Z,18.48
2022-12-09T00:26:57.597Z,19.92
2022-12-09T00:29:24.543Z,21.80
2022-12-09T00:31:51.860Z,21.50
2022-12-09T00:34:19.376Z,22.75
2022-12-09T00:36:46.612Z,20.40
2022-12-09T00:39:13.882Z,18.65
2022-12-09T00:41:40.792Z,21.90
2022-12-09T00:44:08.330Z,19.27
2022-12-09T00:46:35.396Z,20.85
2022-12-09T00:49:04.528Z,17.95
2022-12-09T00:51:31.639Z,16.67
2022-12-09T00:53:58.624Z,16.58
2022-12-09T00:56:28.501Z,17.10
2022-12-09T00:58:57.412Z,17.50
2022-12-09T01:01:24.679Z,16.52
2022-12-09T01:03:52.228Z,17.58
2022-12-09T01:06:22.082Z,15.48
2022-12-09T01:08:49.511Z,15.85
2022-12-09T01:11:19.413Z,18.77
2022-12-09T01:13:47.120Z,14.65
2022-12-09T01:16:24.857Z,16.70
2022-12-09T01:18:54.098Z,16.98
2022-12-09T01:21:21.294Z,17.30
2022-12-09T01:23:48.172Z,15.77
2022-12-09T01:26:15.561Z,15.80
2022-12-09T01:28:42.764Z,14.70
2022-12-09T01:31:12.646Z,15.45
2022-12-09T01:33:40.841Z,17.30
2022-12-09T01:36:10.735Z,16.67
2022-12-09T01:38:38.094Z,15.30
2022-12-09T01:41:05.374Z,14.55
2022-12-09T01:43:32.988Z,13.32
2022-12-09T01:46:00.012Z,9.63
2022-12-09T01:48:37.586Z,14.10
2022-12-09T01:51:19.641Z,15.02
2022-12-09T01:53:50.164Z,13.90
2022-12-09T01:56:22.431Z,11.70
2022-12-09T01:58:50.309Z,9.23
2022-12-09T02:01:18.122Z,7.43
2022-12-09T02:03:45.777Z,11.52
2022-12-09T02:06:13.567Z,13.90
2022-12-09T02:08:41.063Z,12.38
2022-12-09T02:11:14.274Z,11.23
2022-12-09T02:13:41.359Z,10.65
2022-12-09T02:16:14.249Z,14.90
2022-12-09T02:18:54.734Z,12.07
2022-12-09T02:21:36.952Z,14.30
2022-12-09T02:24:09.160Z,11.68
2022-12-09T02:27:14.656Z,11.37
2022-12-09T02:29:47.228Z,11.02
2022-12-09T02:32:56.293Z,10.65
2022-12-09T02:35:32.185Z,10.90
2022-12-09T02:38:12.398Z,11.52
2022-12-09T02:40:57.378Z,11.23
2022-12-09T02:43:29.073Z,10.02
2022-12-09T02:45:58.560Z,10.18
2022-12-09T02:48:33.260Z,12.38
2022-12-09T02:51:03.868Z,7.50
2022-12-09T02:53:32.279Z,12.10
2022-12-09T02:55:59.949Z,9.10
2022-12-09T02:58:27.275Z,11.07
2022-12-09T03:00:56.719Z,11.60
2022-12-09T03:03:25.227Z,12.00
2022-12-09T03:06:07.206Z,10.50
2022-12-09T03:08:49.064Z,11.00
2022-12-09T03:11:18.752Z,10.07
2022-12-09T03:13:57.179Z,10.50
2022-12-09T03:16:35.742Z,9.73
2022-12-09T03:19:05.566Z,9.30
2022-12-09T03:21:38.280Z,9.55
2022-12-09T03:24:08.608Z,8.52
2022-12-09T03:26:38.912Z,17.85
2022-12-09T03:29:17.898Z,12.38
2022-12-09T03:31:47.218Z,10.77
2022-12-09T03:34:17.646Z,10.23
2022-12-09T03:36:48.135Z,13.18
2022-12-09T03:39:19.111Z,9.85
2022-12-09T03:41:52.309Z,10.32
2022-12-09T03:44:47.607Z,9.00
2022-12-09T03:47:14.787Z,9.30
2022-12-09T03:49:42.553Z,11.70
2022-12-09T03:52:28.860Z,10.65
2022-12-09T03:55:01.086Z,13.73
2022-12-09T03:57:29.201Z,12.87
2022-12-09T04:00:02.177Z,11.15
2022-12-09T04:02:30.238Z,11.32
2022-12-09T04:04:57.765Z,13.23
2022-12-09T04:07:24.949Z,12.27
2022-12-09T04:09:52.405Z,10.73
2022-12-09T04:12:19.657Z,13.70
2022-12-09T04:14:47.090Z,13.30
2022-12-09T04:17:14.639Z,13.23
2022-12-09T04:19:41.976Z,12.98
2022-12-09T04:22:09.576Z,12.77
2022-12-09T04:24:36.901Z,13.10
2022-12-09T04:27:04.218Z,12.98
2022-12-09T04:29:31.519Z,11.60
2022-12-09T04:31:58.896Z,12.40
2022-12-09T04:34:25.908Z,13.27
2022-12-09T04:36:52.860Z,13.15
2022-12-09T04:39:19.831Z,15.07
2022-12-09T04:41:47.088Z,14.77
2022-12-09T04:44:14.300Z,13.70
2022-12-09T04:46:42.004Z,12.57
2022-12-09T04:49:09.040Z,11.38
2022-12-09T04:51:39.962Z,9.68
2022-12-09T04:54:11.156Z,12.27
2022-12-09T04:56:38.251Z,11.85
2022-12-09T04:59:06.320Z,12.63
2022-12-09T05:01:33.909Z,11.18
2022-12-09T05:04:01.671Z,16.17
2022-12-09T05:06:29.709Z,13.18
2022-12-09T05:08:57.952Z,15.30
2022-12-09T05:11:25.846Z,14.55
2022-12-09T05:13:56.654Z,14.88
2022-12-09T05:16:24.102Z,12.02
2022-12-09T05:18:51.569Z,13.70
2022-12-09T05:21:20.807Z,13.15
2022-12-09T05:23:49.507Z,14.55
2022-12-09T05:26:19.574Z,15.45
2022-12-09T05:28:47.525Z,15.70
2022-12-09T05:31:18.051Z,13.30
2022-12-09T05:33:46.875Z,16.65
2022-12-09T05:36:16.283Z,16.92
2022-12-09T05:38:43.799Z,16.20
2022-12-09T05:41:11.396Z,14.35
2022-12-09T05:43:38.957Z,20.23
2022-12-09T05:46:07.045Z,15.65
2022-12-09T05:48:34.708Z,16.40
2022-12-09T05:51:08.029Z,15.85
2022-12-09T05:53:35.338Z,15.88
2022-12-09T05:56:03.114Z,16.33
2022-12-09T05:58:30.296Z,17.42
2022-12-09T06:01:04.928Z,17.10
2022-12-09T06:03:32.247Z,14.30
2022-12-09T06:05:59.875Z,15.05
2022-12-09T06:08:28.984Z,18.95
2022-12-09T06:10:56.045Z,16.67
2022-12-09T06:13:23.536Z,17.45
2022-12-09T06:15:50.535Z,18.13
2022-12-09T06:18:18.001Z,16.95
2022-12-09T06:20:45.032Z,15.35
2022-12-09T06:23:12.029Z,16.83
2022-12-09T06:25:45.220Z,18.80
2022-12-09T06:28:13.076Z,15.93
2022-12-09T06:30:40.124Z,16.42
2022-12-09T06:33:23.126Z,15.85
2022-12-09T06:35:54.954Z,16.65
2022-12-09T06:38:22.022Z,15.93
2022-12-09T06:40:49.221Z,16.58
2022-12-09T06:43:16.352Z,17.15
2022-12-09T06:45:43.476Z,15.73
2022-12-09T06:48:10.871Z,15.05
2022-12-09T06:50:38.621Z,16.40
2022-12-09T06:53:05.609Z,20.88
2022-12-09T06:55:32.504Z,19.58
2022-12-09T06:57:59.977Z,16.25
2022-12-09T07:00:27.045Z,16.77
2022-12-09T07:02:54.775Z,14.57
2022-12-09T07:05:23.206Z,14.85
2022-12-09T07:07:52.177Z,14.77
2022-12-09T07:10:20.687Z,19.67
2022-12-09T07:12:47.740Z,17.90
2022-12-09T07:15:15.252Z,16.23
2022-12-09T07:17:42.492Z,16.10
2022-12-09T07:20:10.318Z,18.77
2022-12-09T07:22:37.827Z,16.63
2022-12-09T07:25:05.954Z,17.73
2022-12-09T07:27:33.328Z,15.55
2022-12-09T07:30:00.494Z,17.60
2022-12-09T07:32:28.142Z,18.85
2022-12-09T07:34:55.683Z,18.92
2022-12-09T07:37:22.631Z,17.40
2022-12-09T07:39:49.655Z,15.90
2022-12-09T07:42:16.820Z,19.40
2022-12-09T07:44:43.788Z,16.35
2022-12-09T07:47:10.950Z,17.67
2022-12-09T07:49:38.250Z,19.13
2022-12-09T07:52:05.691Z,17.90
2022-12-09T07:54:32.717Z,17.70
2022-12-09T07:56:59.784Z,17.02
2022-12-09T07:59:27.131Z,19.38
2022-12-09T08:01:54.264Z,17.83
2022-12-09T08:04:21.784Z,16.48
2022-12-09T08:06:49.277Z,15.93
2022-12-09T08:09:16.683Z,17.70
2022-12-09T08:11:44.324Z,18.17
2022-12-09T08:14:13.046Z,17.67
2022-12-09T08:16:42.008Z,15.35
2022-12-09T08:19:10.200Z,147.45
2022-12-09T08:21:37.748Z,22.48
2022-12-09T08:24:07.785Z,18.83
2022-12-09T08:26:37.518Z,17.90
2022-12-09T08:29:08.166Z,20.20
2022-12-09T08:31:40.590Z,15.02
2022-12-09T08:34:08.894Z,18.00
2022-12-09T08:36:37.138Z,19.17
2022-12-09T08:39:05.324Z,19.95
2022-12-09T08:41:39.082Z,19.48
2022-12-09T08:44:12.161Z,18.83
2022-12-09T08:46:43.597Z,16.90
2022-12-09T08:49:11.350Z,17.77
2022-12-09T08:51:39.671Z,20.08
2022-12-09T08:54:07.052Z,20.58
2022-12-09T08:56:34.467Z,19.05
2022-12-09T08:59:02.181Z,22.13
2022-12-09T09:01:35.914Z,19.30
2022-12-09T09:04:06.453Z,20.85
2022-12-09T09:06:34.217Z,21.08
2022-12-09T09:09:01.953Z,21.95
2022-12-09T09:11:29.794Z,22.23
2022-12-09T09:13:57.035Z,21.25
2022-12-09T09:16:25.855Z,138.45
2022-12-09T09:18:53.588Z,26.02
2022-12-09T09:21:24.175Z,19.73
2022-12-09T09:23:51.936Z,21.77
2022-12-09T09:26:22.056Z,22.27
2022-12-09T09:28:50.295Z,20.95
2022-12-09T09:31:20.402Z,19.10
2022-12-09T09:33:54.912Z,16.65
2022-12-09T09:36:24.907Z,17.55
2022-12-09T09:38:54.140Z,18.45
2022-12-09T09:41:38.020Z,17.65
2022-12-09T09:44:32.423Z,14.48
2022-12-09T09:47:01.994Z,15.18
2022-12-09T09:49:53.394Z,15.50
2022-12-09T09:52:23.494Z,15.43
2022-12-09T09:54:51.971Z,24.30
2022-12-09T09:57:24.906Z,15.88
2022-12-09T10:00:08.396Z,16.30
2022-12-09T10:03:15.314Z,15.23
2022-12-09T10:05:58.680Z,15.02
2022-12-09T10:08:32.916Z,14.75
2022-12-09T10:11:11.912Z,15.40
2022-12-09T10:13:48.405Z,16.83
2022-12-09T10:16:23.998Z,15.00
2022-12-09T10:19:19.031Z,16.35
2022-12-09T10:21:48.877Z,16.42
2022-12-09T10:24:39.203Z,16.42
2022-12-09T10:27:16.596Z,17.05
2022-12-09T10:30:18.569Z,17.83
2022-12-09T10:32:46.649Z,18.95
2022-12-09T10:35:25.762Z,24.15
2022-12-09T10:37:55.632Z,21.67
2022-12-09T10:40:30.306Z,23.17
2022-12-09T10:43:18.342Z,21.40
2022-12-09T10:48:49.421Z,22.50
2022-12-09T10:51:22.078Z,22.50
2022-12-09T10:54:21.779Z,23.50
2022-12-09T10:57:07.282Z,20.15
2022-12-09T10:59:35.389Z,20.10
2022-12-09T11:02:10.159Z,20.10
2022-12-09T11:04:42.223Z,21.98
2022-12-09T11:07:18.278Z,23.17
2022-12-09T11:09:56.480Z,23.25
2022-12-09T11:12:38.570Z,26.58
2022-12-09T11:15:32.494Z,26.98
2022-12-09T11:18:16.736Z,23.92
2022-12-09T11:20:56.072Z,18.02
2022-12-09T11:23:23.120Z,22.90
2022-12-09T11:26:00.665Z,25.10
2022-12-09T11:28:36.851Z,28.20
2022-12-09T11:33:57.242Z,19.00
2022-12-09T11:36:36.850Z,41.95
2022-12-09T11:39:16.308Z,23.00
2022-12-09T11:42:12.956Z,19.17
2022-12-09T11:45:16.217Z,21.80
2022-12-09T11:50:37.448Z,18.77
2022-12-09T11:53:13.271Z,19.70
2022-12-09T11:56:05.568Z,18.45
2022-12-09T11:58:49.499Z,20.75
2022-12-09T12:01:27.666Z,17.80
2022-12-09T12:04:01.552Z,24.05
2022-12-09T12:06:48.315Z,24.42
2022-12-09T12:09:21.525Z,25.02
2022-12-09T12:11:52.916Z,23.00
2022-12-09T12:14:25.766Z,20.67
2022-12-09T12:17:17.268Z,22.08
2022-12-09T12:19:49.356Z,19.48
2022-12-09T12:22:22.263Z,19.00
2022-12-09T12:25:17.690Z,17.80
2022-12-09T12:28:07.991Z,22.23
2022-12-09T12:30:56.010Z,22.23
2022-12-09T12:36:28.711Z,18.63
2022-12-09T12:39:20.923Z,20.77
2022-12-09T12:41:57.656Z,19.98
2022-12-09T12:45:14.037Z,19.85
2022-12-09T12:47:47.027Z,17.63
2022-12-09T12:50:43.912Z,17.90
2022-12-09T12:53:20.981Z,21.83
2022-12-09T12:55:50.178Z,19.67
2022-12-09T12:58:41.263Z,18.10
2022-12-09T13:01:31.328Z,20.80
2022-12-09T13:04:13.977Z,21.35
2022-12-09T13:06:49.443Z,17.88
2022-12-09T13:09:51.169Z,18.83
2022-12-09T13:12:55.528Z,18.50
2022-12-09T13:15:39.003Z,17.38
2022-12-09T13:18:24.791Z,16.88
2022-12-09T13:20:59.868Z,18.95
2022-12-09T13:23:40.820Z,19.52
2022-12-09T13:26:35.393Z,17.90
2022-12-09T13:29:02.229Z,18.27
2022-12-09T13:31:31.188Z,27.75
2022-12-09T13:34:22.668Z,23.40
2022-12-09T13:36:49.780Z,23.80
2022-12-09T13:39:42.688Z,23.92
2022-12-09T13:42:47.431Z,24.30
2022-12-09T13:45:25.429Z,27.05
2022-12-09T13:47:53.431Z,33.03
2022-12-09T13:50:43.519Z,31.27
2022-12-09T13:53:19.401Z,29.52
2022-12-09T13:55:54.221Z,30.52
2022-12-09T13:58:53.471Z,31.48
2022-12-09T14:01:43.819Z,35.72
2022-12-09T14:04:16.022Z,35.55
2022-12-09T14:06:45.763Z,35.93
2022-12-09T14:09:37.183Z,34.40
2022-12-09T14:12:11.736Z,29.23
2022-12-09T14:14:48.672Z,30.17
2022-12-09T14:17:41.256Z,31.45
2022-12-09T14:20:29.968Z,34.90
2022-12-09T14:23:02.515Z,37.88
2022-12-09T14:25:29.369Z,29.83
2022-12-09T14:28:25.411Z,29.98
2022-12-09T14:30:59.757Z,29.67
2022-12-09T14:33:34.320Z,25.02
2022-12-09T14:36:27.719Z,29.63
2022-12-09T14:39:24.957Z,24.73
2022-12-09T14:42:01.469Z,32.78
2022-12-09T14:44:43.906Z,34.55
2022-12-09T14:47:27.009Z,47.63
2022-12-09T14:50:03.750Z,46.42
2022-12-09T14:52:32.974Z,52.55
2022-12-09T14:55:06.697Z,49.13
2022-12-09T14:57:41.634Z,44.90
2022-12-09T15:00:35.736Z,48.33
2022-12-09T15:06:00.525Z,54.70
2022-12-09T15:08:28.453Z,54.88
2022-12-09T15:10:55.442Z,57.78
2022-12-09T15:13:24.470Z,54.40
2022-12-09T15:15:52.443Z,56.90
2022-12-09T15:18:23.016Z,59.97
2022-12-09T15:20:57.811Z,69.20
2022-12-09T15:23:30.639Z,64.72
2022-12-09T15:26:04.333Z,66.75
2022-12-09T15:28:33.715Z,72.53
2022-12-09T15:31:15.805Z,69.72
2022-12-09T15:33:45.750Z,70.18
2022-12-09T15:36:21.159Z,63.03
2022-12-09T15:39:07.979Z,68.68
2022-12-09T15:42:02.801Z,67.38
2022-12-09T15:44:56.156Z,66.78
2022-12-09T15:47:57.450Z,72.05
2022-12-09T15:50:28.816Z,68.80
2022-12-09T15:53:06.256Z,75.93
2022-12-09T15:55:50.560Z,68.72
2022-12-09T15:58:24.023Z,69.75
2022-12-09T16:00:53.877Z,69.47
2022-12-09T16:03:30.269Z,57.05
2022-12-09T16:06:01.174Z,57.85
2022-12-09T16:08:35.218Z,57.75
2022-12-09T16:11:02.570Z,59.42
2022-12-09T16:13:29.897Z,59.85
2022-12-09T16:15:59.067Z,59.72
2022-12-09T16:18:28.116Z,56.30
2022-12-09T16:21:14.897Z,66.50
2022-12-09T16:23:44.089Z,73.82
2022-12-09T16:26:30.818Z,82.90
2022-12-09T16:29:01.485Z,89.65
2022-12-09T16:31:29.072Z,90.47
2022-12-09T16:33:56.565Z,90.03
2022-12-09T16:36:31.742Z,94.78
2022-12-09T16:39:07.272Z,87.95
2022-12-09T16:41:52.219Z,100.35
2022-12-09T16:44:21.684Z,101.13
2022-12-09T16:46:48.736Z,102.05
2022-12-09T16:49:15.705Z,89.60
2022-12-09T16:51:42.642Z,84.68
2022-12-09T16:54:20.283Z,100.18
2022-12-09T16:56:48.598Z,99.45
2022-12-09T16:59:15.488Z,111.82
2022-12-09T17:01:42.925Z,118.50
2022-12-09T17:04:17.401Z,127.50
2022-12-09T17:06:44.456Z,116.38
2022-12-09T17:09:14.549Z,115.95
2022-12-09T17:11:46.994Z,111.50
2022-12-09T17:14:16.162Z,103.00
2022-12-09T17:16:43.081Z,93.65
2022-12-09T17:19:09.965Z,91.05
2022-12-09T17:21:36.866Z,82.10
2022-12-09T17:24:04.004Z,75.40
2022-12-09T17:26:30.931Z,63.33
2022-12-09T17:29:01.550Z,70.93
2022-12-09T17:31:29.203Z,81.63
2022-12-09T17:33:57.228Z,85.68
2022-12-09T17:36:24.210Z,92.90
2022-12-09T17:38:51.088Z,90.00
2022-12-09T17:41:23.445Z,96.60
2022-12-09T17:43:50.493Z,97.93
2022-12-09T17:46:17.670Z,90.43
2022-12-09T17:48:44.818Z,102.40
2022-12-09T17:51:18.004Z,88.88
2022-12-09T17:53:45.765Z,89.55
2022-12-09T17:56:18.880Z,92.90
2022-12-09T18:01:15.925Z,87.68
2022-12-09T18:04:01.611Z,83.43
2022-12-09T18:06:34.811Z,87.28
2022-12-09T18:09:04.132Z,78.38
2022-12-09T18:11:31.403Z,87.25
2022-12-09T18:13:58.630Z,83.55
2022-12-09T18:16:26.192Z,85.13
2022-12-09T18:18:53.256Z,90.65
2022-12-09T18:21:20.266Z,91.28
2022-12-09T18:23:48.428Z,85.93
2022-12-09T18:26:17.883Z,84.95
2022-12-09T18:28:45.351Z,94.15
2022-12-09T18:31:19.252Z,93.80
2022-12-09T18:33:46.601Z,89.53
2022-12-09T18:36:15.960Z,99.03
2022-12-09T18:38:43.515Z,110.97
2022-12-09T18:41:16.224Z,101.30
2022-12-09T18:43:44.804Z,104.00
2022-12-09T18:46:21.370Z,104.90
2022-12-09T18:49:17.646Z,106.18
2022-12-09T18:51:45.850Z,99.30
2022-12-09T18:54:18.206Z,113.28
2022-12-09T18:56:45.535Z,111.75
2022-12-09T18:59:12.444Z,108.72
2022-12-09T19:01:45.375Z,107.63
2022-12-09T19:04:24.615Z,115.70
2022-12-09T19:06:54.017Z,112.07
2022-12-09T19:09:23.450Z,93.70
2022-12-09T19:11:52.282Z,104.05
2022-12-09T19:14:21.343Z,96.00
2022-12-09T19:16:49.443Z,91.20
2022-12-09T19:19:22.516Z,96.93
2022-12-09T19:24:18.938Z,94.40
2022-12-09T19:26:46.488Z,97.35
2022-12-09T19:29:14.283Z,99.18
2022-12-09T19:31:44.264Z,104.53
2022-12-09T19:34:13.346Z,100.82
2022-12-09T19:36:40.360Z,105.57
2022-12-09T19:39:08.637Z,100.75
2022-12-09T19:41:36.965Z,106.07
2022-12-09T19:44:04.969Z,102.65
2022-12-09T19:46:33.141Z,94.75
2022-12-09T19:49:00.498Z,100.80
2022-12-09T19:51:28.077Z,95.20
2022-12-09T19:53:56.864Z,92.93
2022-12-09T19:56:24.508Z,85.00
2022-12-09T19:58:52.380Z,85.63
2022-12-09T20:01:28.088Z,87.93
2022-12-09T20:04:13.563Z,77.13
2022-12-09T20:06:48.157Z,83.30
2022-12-09T20:09:19.328Z,80.57
2022-12-09T20:11:46.205Z,320.63
2022-12-09T20:14:14.081Z,82.88
2022-12-09T20:16:41.403Z,83.88
2022-12-09T20:19:08.751Z,86.60
2022-12-09T20:21:37.755Z,93.30
2022-12-09T20:24:05.957Z,97.70
2022-12-09T20:26:34.592Z,101.78
2022-12-09T20:29:04.399Z,96.00
2022-12-09T20:31:33.401Z,101.18
2022-12-09T20:34:04.331Z,96.07
2022-12-09T20:36:35.253Z,93.40
2022-12-09T20:39:05.770Z,105.78
2022-12-09T20:41:34.858Z,92.97
2022-12-09T20:44:01.782Z,95.32
2022-12-09T20:46:31.031Z,94.63
2022-12-09T20:48:59.336Z,83.68
2022-12-09T20:51:30.611Z,89.70
2022-12-09T20:53:58.190Z,89.30
2022-12-09T20:56:26.342Z,84.05
2022-12-09T20:58:54.058Z,76.93
2022-12-09T21:01:23.918Z,69.13
2022-12-09T21:03:52.643Z,74.07
2022-12-09T21:06:22.534Z,71.85
2022-12-09T21:08:49.704Z,74.30
2022-12-09T21:11:19.873Z,79.60
2022-12-09T21:13:49.666Z,76.45
2022-12-09T21:16:20.512Z,79.05
2022-12-09T21:18:49.360Z,81.18
2022-12-09T21:21:17.748Z,77.40
2022-12-09T21:23:44.926Z,76.30
2022-12-09T21:26:15.620Z,76.18
2022-12-09T21:28:43.770Z,75.53
2022-12-09T21:31:16.562Z,75.22
2022-12-09T21:33:44.860Z,76.43
2022-12-09T21:36:17.701Z,80.30
2022-12-09T21:38:44.789Z,79.88
2022-12-09T21:41:15.191Z,78.15
2022-12-09T21:43:43.069Z,76.35
2022-12-09T21:46:17.818Z,73.20
2022-12-09T21:48:50.563Z,155.90
2022-12-09T21:51:19.884Z,78.22
2022-12-09T21:53:47.392Z,70.50
2022-12-09T21:56:25.884Z,69.38
2022-12-09T21:58:55.259Z,75.20
2022-12-09T22:01:26.199Z,70.80
2022-12-09T22:03:53.657Z,69.78
2022-12-09T22:06:21.222Z,67.70
2022-12-09T22:08:48.232Z,62.05
2022-12-09T22:11:18.176Z,56.58
2022-12-09T22:13:45.442Z,54.75
2022-12-09T22:16:18.673Z,59.85
2022-12-09T22:18:46.250Z,53.88
2022-12-09T22:21:26.296Z,49.72
2022-12-09T22:23:55.144Z,50.15
2022-12-09T22:26:22.935Z,55.70
2022-12-09T22:28:50.425Z,49.70
2022-12-09T22:31:22.893Z,54.88
2022-12-09T22:33:51.536Z,51.05
2022-12-09T22:36:19.990Z,47.63
2022-12-09T22:38:47.721Z,48.78
2022-12-09T22:41:21.332Z,48.17
2022-12-09T22:43:49.139Z,44.58
2022-12-09T22:46:20.129Z,41.55
2022-12-09T22:48:47.823Z,41.70
2022-12-09T22:51:20.862Z,83.55
2022-12-09T22:56:18.830Z,39.63
2022-12-09T22:58:46.243Z,39.45
2022-12-09T23:01:26.866Z,36.17
2022-12-09T23:03:58.013Z,34.13
2022-12-09T23:06:26.816Z,34.88
2022-12-09T23:08:54.053Z,35.15
2022-12-09T23:11:23.316Z,32.80
2022-12-09T23:13:50.996Z,34.13
2022-12-09T23:16:20.819Z,36.17
2022-12-09T23:18:48.204Z,33.83
2022-12-09T23:21:24.260Z,31.58
2022-12-09T23:23:56.785Z,31.20
2022-12-09T23:26:28.152Z,35.75
2022-12-09T23:28:58.131Z,29.40
2022-12-09T23:31:27.881Z,30.05
2022-12-09T23:33:55.421Z,29.73
2022-12-09T23:36:25.674Z,30.33
2022-12-09T23:38:53.563Z,25.48
2022-12-09T23:41:22.435Z,28.98
2022-12-09T23:43:50.128Z,29.08
2022-12-09T23:46:19.763Z,26.63
2022-12-09T23:48:48.216Z,25.75
2022-12-09T23:51:27.898Z,25.80
2022-12-09T23:53:57.523Z,22.95
2022-12-09T23:56:26.300Z,23.38
2022-12-09T23:58:56.285Z,31.55
